createdAt,value
2022-10-23T00:00:43.565Z,33.97
2022-10-23T00:03:09.970Z,36.08
2022-10-23T00:05:40.470Z,18.75
2022-10-23T00:08:07.275Z,21.70
2022-10-23T00:10:33.903Z,31.80
2022-10-23T00:13:00.315Z,22.10
2022-10-23T00:15:27.437Z,25.95
2022-10-23T00:17:54.157Z,18.52
2022-10-23T00:20:21.748Z,21.33
2022-10-23T00:22:48.117Z,27.95
2022-10-23T00:25:16.304Z,25.25
2022-10-23T00:27:43.298Z,24.98
2022-10-23T00:30:10.772Z,18.55
2022-10-23T00:32:37.444Z,19.17
2022-10-23T00:35:04.679Z,19.08
2022-10-23T00:37:31.041Z,22.73
2022-10-23T00:39:57.417Z,17.75
2022-10-23T00:42:24.106Z,27.00
2022-10-23T00:44:50.402Z,13.48
2022-10-23T00:47:17.314Z,14.82
2022-10-23T00:49:44.027Z,23.27
2022-10-23T00:52:13.140Z,23.02
2022-10-23T00:54:43.605Z,29.40
2022-10-23T00:57:14.724Z,15.90
2022-10-23T00:59:42.273Z,18.40
2022-10-23T01:02:09.140Z,21.13
2022-10-23T01:04:36.785Z,21.08
2022-10-23T01:07:14.352Z,16.70
2022-10-23T01:09:55.732Z,15.93
2022-10-23T01:12:24.799Z,25.00
2022-10-23T01:15:16.180Z,24.65
2022-10-23T01:17:49.727Z,23.95
2022-10-23T01:20:39.360Z,16.67
2022-10-23T01:23:29.054Z,20.13
2022-10-23T01:26:20.426Z,17.35
2022-10-23T01:28:59.524Z,19.30
2022-10-23T01:31:42.387Z,21.48
2022-10-23T01:34:22.044Z,26.42
2022-10-23T01:36:51.279Z,24.67
2022-10-23T01:39:27.645Z,21.38
2022-10-23T01:42:03.766Z,19.85
2022-10-23T01:44:34.915Z,25.77
2022-10-23T01:47:03.846Z,21.92
2022-10-23T01:49:31.747Z,29.00
2022-10-23T01:52:03.107Z,20.92
2022-10-23T01:54:33.746Z,24.10
2022-10-23T01:57:00.583Z,20.08
2022-10-23T01:59:35.218Z,22.38
2022-10-23T02:02:04.032Z,21.73
2022-10-23T02:04:36.255Z,26.77
2022-10-23T02:07:02.732Z,23.05
2022-10-23T02:09:29.153Z,22.65
2022-10-23T02:12:03.383Z,17.95
2022-10-23T02:14:36.369Z,28.92
2022-10-23T02:17:16.661Z,28.98
2022-10-23T02:19:56.214Z,28.17
2022-10-23T02:22:28.924Z,24.27
2022-10-23T02:25:08.969Z,36.53
2022-10-23T02:27:39.983Z,30.67
2022-10-23T02:32:42.402Z,24.67
2022-10-23T02:35:09.318Z,23.27
2022-10-23T02:37:35.749Z,29.08
2022-10-23T02:40:03.896Z,44.25
2022-10-23T02:42:47.027Z,47.20
2022-10-23T02:45:36.253Z,44.72
2022-10-23T02:48:29.120Z,35.90
2022-10-23T02:51:18.691Z,27.50
2022-10-23T02:53:51.873Z,32.00
2022-10-23T02:56:38.498Z,30.67
2022-10-23T02:59:18.221Z,42.00
2022-10-23T03:01:51.710Z,33.13
2022-10-23T03:04:21.162Z,42.00
2022-10-23T03:06:49.218Z,42.75
2022-10-23T03:09:15.651Z,44.20
2022-10-23T03:11:42.026Z,39.42
2022-10-23T03:14:09.545Z,41.33
2022-10-23T03:16:36.401Z,40.35
2022-10-23T03:19:02.777Z,38.67
2022-10-23T03:21:29.166Z,37.88
2022-10-23T03:23:55.594Z,36.17
2022-10-23T03:26:21.974Z,36.70
2022-10-23T03:28:48.322Z,32.35
2022-10-23T03:31:14.696Z,21.55
2022-10-23T03:33:41.071Z,31.52
2022-10-23T03:36:08.019Z,27.95
2022-10-23T03:38:34.596Z,29.48
2022-10-23T03:41:01.004Z,32.15
2022-10-23T03:43:27.430Z,24.25
2022-10-23T03:45:55.382Z,22.75
2022-10-23T03:48:24.026Z,29.73
2022-10-23T03:50:50.595Z,34.00
2022-10-23T03:53:17.320Z,34.30
2022-10-23T03:55:44.650Z,25.48
2022-10-23T03:58:11.258Z,21.10
2022-10-23T04:00:37.635Z,28.60
2022-10-23T04:03:04.049Z,29.35
2022-10-23T04:05:30.353Z,41.67
2022-10-23T04:07:57.126Z,21.98
2022-10-23T04:10:23.467Z,31.45
2022-10-23T04:12:49.840Z,22.80
2022-10-23T04:15:16.223Z,21.58
2022-10-23T04:17:42.555Z,36.83
2022-10-23T04:20:09.526Z,23.63
2022-10-23T04:22:35.840Z,23.50
2022-10-23T04:25:02.205Z,27.45
2022-10-23T04:27:28.595Z,25.50
2022-10-23T04:29:56.898Z,36.70
2022-10-23T04:32:25.611Z,30.52
2022-10-23T04:34:51.998Z,23.42
2022-10-23T04:37:18.359Z,30.90
2022-10-23T04:39:44.704Z,23.40
2022-10-23T04:42:11.063Z,16.20
2022-10-23T04:44:37.447Z,14.80
2022-10-23T04:47:03.821Z,14.43
2022-10-23T04:49:30.223Z,12.27
2022-10-23T04:51:56.624Z,14.18
2022-10-23T04:54:23.003Z,15.00
2022-10-23T04:56:49.388Z,12.43
2022-10-23T04:59:15.872Z,15.23
2022-10-23T05:01:42.513Z,18.17
2022-10-23T05:04:08.962Z,16.40
2022-10-23T05:06:35.290Z,14.57
2022-10-23T05:09:01.631Z,27.05
2022-10-23T05:11:27.968Z,14.57
2022-10-23T05:13:54.407Z,12.20
2022-10-23T05:16:32.985Z,14.30
2022-10-23T05:19:00.186Z,23.25
2022-10-23T05:21:31.690Z,16.13
2022-10-23T05:26:31.841Z,12.40
2022-10-23T05:28:58.545Z,12.98
2022-10-23T05:31:25.602Z,15.15
2022-10-23T05:33:54.925Z,14.40
2022-10-23T05:36:23.799Z,12.18
2022-10-23T05:38:50.727Z,13.02
2022-10-23T05:41:17.623Z,14.25
2022-10-23T05:43:44.019Z,16.15
2022-10-23T05:46:10.350Z,21.38
2022-10-23T05:48:36.691Z,18.05
2022-10-23T05:51:08.215Z,15.32
2022-10-23T05:53:36.274Z,16.60
2022-10-23T05:56:09.150Z,14.95
2022-10-23T05:58:35.631Z,18.92
2022-10-23T06:01:07.056Z,14.05
2022-10-23T06:03:33.537Z,14.32
2022-10-23T06:06:00.905Z,17.83
2022-10-23T06:08:27.268Z,15.43
2022-10-23T06:10:54.446Z,17.48
2022-10-23T06:13:20.771Z,17.67
2022-10-23T06:15:47.295Z,19.65
2022-10-23T06:18:14.040Z,17.75
2022-10-23T06:20:40.953Z,22.38
2022-10-23T06:23:08.351Z,21.83
2022-10-23T06:25:34.686Z,42.55
2022-10-23T06:28:01.023Z,37.03
2022-10-23T06:30:27.488Z,29.02
2022-10-23T06:32:53.902Z,33.95
2022-10-23T06:35:20.268Z,34.47
2022-10-23T06:37:46.618Z,37.80
2022-10-23T06:40:13.139Z,44.67
2022-10-23T06:42:39.474Z,26.52
2022-10-23T06:45:07.222Z,33.10
2022-10-23T06:47:33.763Z,28.00
2022-10-23T06:50:00.314Z,19.70
2022-10-23T06:52:45.799Z,20.45
2022-10-23T06:55:13.003Z,28.17
2022-10-23T06:57:39.303Z,24.85
2022-10-23T07:00:06.392Z,28.48
2022-10-23T07:02:32.771Z,26.60
2022-10-23T07:04:59.213Z,24.67
2022-10-23T07:07:25.599Z,24.45
2022-10-23T07:09:51.981Z,22.52
2022-10-23T07:12:18.362Z,28.25
2022-10-23T07:14:44.723Z,22.08
2022-10-23T07:17:11.100Z,22.48
2022-10-23T07:19:37.495Z,20.63
2022-10-23T07:22:04.928Z,31.95
2022-10-23T07:24:31.878Z,16.70
2022-10-23T07:26:58.333Z,16.48
2022-10-23T07:29:24.727Z,17.35
2022-10-23T07:31:51.063Z,15.60
2022-10-23T07:34:17.511Z,15.13
2022-10-23T07:36:43.876Z,12.35
2022-10-23T07:39:10.275Z,20.77
2022-10-23T07:41:36.626Z,14.88
2022-10-23T07:44:03.312Z,11.48
2022-10-23T07:46:29.663Z,10.13
2022-10-23T07:48:56.079Z,11.45
2022-10-23T07:51:22.481Z,12.50
2022-10-23T07:53:48.918Z,13.07
2022-10-23T07:56:20.215Z,13.30
2022-10-23T07:58:46.591Z,13.95
2022-10-23T08:01:19.550Z,19.63
2022-10-23T08:03:46.568Z,15.35
2022-10-23T08:06:12.985Z,12.85
2022-10-23T08:08:39.439Z,11.05
2022-10-23T08:11:06.479Z,17.63
2022-10-23T08:13:33.417Z,14.68
2022-10-23T08:15:59.865Z,16.77
2022-10-23T08:18:26.199Z,13.48
2022-10-23T08:20:52.868Z,13.73
2022-10-23T08:23:20.148Z,14.85
2022-10-23T08:25:47.075Z,17.63
2022-10-23T08:28:13.511Z,17.67
2022-10-23T08:30:40.034Z,14.90
2022-10-23T08:33:07.187Z,19.05
2022-10-23T08:35:38.039Z,13.65
2022-10-23T08:38:05.598Z,20.48
2022-10-23T08:40:35.507Z,18.67
2022-10-23T08:43:11.579Z,12.55
2022-10-23T08:45:44.252Z,11.18
2022-10-23T08:48:20.530Z,9.90
2022-10-23T08:50:53.423Z,9.60
2022-10-23T08:53:29.481Z,8.55
2022-10-23T08:56:12.041Z,11.68
2022-10-23T09:01:33.105Z,9.77
2022-10-23T09:04:00.459Z,11.15
2022-10-23T09:06:33.901Z,10.68
2022-10-23T09:09:09.985Z,10.18
2022-10-23T09:11:47.267Z,10.48
2022-10-23T09:14:40.459Z,10.00
2022-10-23T09:17:24.502Z,10.55
2022-10-23T09:20:00.582Z,10.05
2022-10-23T09:22:28.727Z,11.80
2022-10-23T09:24:55.110Z,11.75
2022-10-23T09:27:21.585Z,17.90
2022-10-23T09:29:54.116Z,14.30
2022-10-23T09:32:32.729Z,12.80
2022-10-23T09:34:59.077Z,13.90
2022-10-23T09:37:31.078Z,11.43
2022-10-23T09:40:15.465Z,13.55
2022-10-23T09:42:52.308Z,13.55
2022-10-23T09:48:17.677Z,12.05
2022-10-23T09:50:51.721Z,13.13
2022-10-23T09:53:29.498Z,12.65
2022-10-23T09:55:59.257Z,14.27
2022-10-23T09:58:38.531Z,11.93
2022-10-23T10:01:05.413Z,11.95
2022-10-23T10:03:32.434Z,12.98
2022-10-23T10:06:02.299Z,11.40
2022-10-23T10:08:51.693Z,10.50
2022-10-23T10:11:27.677Z,10.60
2022-10-23T10:14:15.196Z,11.60
2022-10-23T10:17:14.449Z,10.20
2022-10-23T10:20:03.747Z,10.57
2022-10-23T10:22:57.743Z,10.48
2022-10-23T10:25:41.992Z,10.68
2022-10-23T10:28:17.426Z,10.68
2022-10-23T10:31:21.328Z,11.23
2022-10-23T10:34:04.983Z,10.45
2022-10-23T10:36:44.138Z,10.73
2022-10-23T10:39:31.904Z,9.30
2022-10-23T10:42:12.768Z,10.18
2022-10-23T10:44:57.491Z,8.73
2022-10-23T10:47:45.319Z,8.80
2022-10-23T10:53:02.410Z,10.38
2022-10-23T10:55:35.544Z,10.35
2022-10-23T10:58:20.302Z,8.68
2022-10-23T11:00:53.134Z,8.88
2022-10-23T11:03:37.601Z,9.57
2022-10-23T11:06:16.385Z,8.88
2022-10-23T11:08:57.563Z,10.68
2022-10-23T11:11:35.230Z,9.25
2022-10-23T11:14:02.084Z,9.60
2022-10-23T11:16:36.536Z,9.50
2022-10-23T11:19:21.192Z,9.70
2022-10-23T11:22:18.395Z,9.15
2022-10-23T11:25:21.492Z,9.30
2022-10-23T11:28:11.453Z,9.57
2022-10-23T11:30:43.835Z,9.63
2022-10-23T11:33:25.929Z,9.25
2022-10-23T11:36:19.747Z,8.63
2022-10-23T11:41:33.811Z,8.48
2022-10-23T11:44:03.933Z,9.48
2022-10-23T11:46:38.658Z,9.35
2022-10-23T11:49:19.224Z,9.02
2022-10-23T11:51:45.834Z,8.68
2022-10-23T11:54:13.289Z,8.85
2022-10-23T11:57:10.726Z,7.97
2022-10-23T11:59:49.545Z,8.30
2022-10-23T12:02:22.805Z,7.03
2022-10-23T12:04:52.377Z,7.25
2022-10-23T12:07:28.907Z,6.72
2022-10-23T12:10:03.547Z,7.35
2022-10-23T12:12:40.649Z,7.32
2022-10-23T12:15:18.994Z,7.28
2022-10-23T12:17:47.235Z,7.38
2022-10-23T12:20:13.660Z,7.28
2022-10-23T12:22:49.029Z,7.50
2022-10-23T12:25:39.574Z,6.63
2022-10-23T12:28:14.063Z,7.00
2022-10-23T12:31:14.044Z,6.22
2022-10-23T12:34:01.131Z,7.50
2022-10-23T12:36:37.300Z,7.10
2022-10-23T12:39:03.692Z,7.15
2022-10-23T12:41:33.673Z,6.85
2022-10-23T12:44:03.251Z,7.28
2022-10-23T12:46:31.738Z,7.20
2022-10-23T12:48:59.888Z,7.63
2022-10-23T12:51:36.740Z,8.23
2022-10-23T12:54:04.054Z,7.90
2022-10-23T12:56:38.890Z,6.75
2022-10-23T12:59:15.014Z,7.43
2022-10-23T13:01:43.435Z,7.75
2022-10-23T13:04:31.889Z,6.90
2022-10-23T13:07:03.058Z,6.95
2022-10-23T13:09:42.165Z,7.20
2022-10-23T13:12:18.528Z,5.72
2022-10-23T13:15:03.301Z,5.68
2022-10-23T13:17:37.730Z,6.68
2022-10-23T13:20:10.309Z,6.35
2022-10-23T13:22:36.937Z,6.78
2022-10-23T13:25:04.331Z,6.40
2022-10-23T13:27:30.624Z,7.20
2022-10-23T13:29:57.026Z,7.07
2022-10-23T13:32:25.409Z,6.53
2022-10-23T13:35:03.931Z,7.28
2022-10-23T13:37:30.769Z,6.88
2022-10-23T13:40:01.252Z,7.07
2022-10-23T13:42:27.773Z,6.70
2022-10-23T13:44:54.527Z,6.78
2022-10-23T13:47:21.391Z,7.18
2022-10-23T13:49:47.849Z,6.85
2022-10-23T13:52:19.271Z,6.68
2022-10-23T13:54:45.706Z,6.80
2022-10-23T13:57:14.656Z,6.05
2022-10-23T13:59:41.679Z,7.28
2022-10-23T14:02:19.692Z,6.25
2022-10-23T14:04:47.165Z,6.43
2022-10-23T14:07:13.544Z,6.78
2022-10-23T14:09:40.128Z,7.10
2022-10-23T14:12:06.614Z,6.63
2022-10-23T14:14:33.852Z,6.10
2022-10-23T14:17:00.325Z,5.75
2022-10-23T14:19:26.762Z,5.85
2022-10-23T14:21:53.191Z,6.72
2022-10-23T14:24:19.537Z,5.80
2022-10-23T14:26:45.989Z,6.05
2022-10-23T14:29:21.367Z,5.28
2022-10-23T14:31:49.541Z,5.43
2022-10-23T14:34:16.562Z,6.03
2022-10-23T14:36:49.959Z,6.20
2022-10-23T14:39:17.863Z,5.65
2022-10-23T14:41:44.455Z,6.07
2022-10-23T14:44:10.914Z,5.53
2022-10-23T14:46:38.231Z,5.45
2022-10-23T14:49:04.700Z,6.00
2022-10-23T14:51:31.091Z,5.57
2022-10-23T14:54:07.473Z,5.50
2022-10-23T14:56:37.553Z,5.18
2022-10-23T14:59:04.728Z,5.38
2022-10-23T15:01:33.204Z,5.68
2022-10-23T15:03:59.734Z,5.43
2022-10-23T15:06:26.548Z,5.03
2022-10-23T15:08:56.842Z,5.25
2022-10-23T15:11:24.548Z,5.40
2022-10-23T15:13:51.299Z,5.03
2022-10-23T15:16:18.180Z,5.35
2022-10-23T15:18:44.538Z,4.88
2022-10-23T15:21:11.183Z,5.03
2022-10-23T15:23:40.020Z,4.38
2022-10-23T15:26:09.219Z,4.90
2022-10-23T15:28:35.625Z,5.05
2022-10-23T15:31:02.095Z,4.93
2022-10-23T15:33:28.705Z,4.97
2022-10-23T15:35:55.360Z,6.00
2022-10-23T15:38:22.577Z,4.47
2022-10-23T15:40:49.391Z,4.50
2022-10-23T15:43:16.249Z,4.80
2022-10-23T15:45:43.195Z,4.90
2022-10-23T15:48:10.807Z,6.63
2022-10-23T15:50:37.535Z,19.75
2022-10-23T15:53:04.077Z,5.10
2022-10-23T15:55:30.581Z,22.48
2022-10-23T15:58:01.798Z,6.38
2022-10-23T16:00:28.319Z,7.25
2022-10-23T16:02:54.770Z,8.13
2022-10-23T16:05:21.303Z,7.25
2022-10-23T16:07:47.735Z,10.88
2022-10-23T16:10:14.209Z,6.30
2022-10-23T16:12:40.747Z,6.05
2022-10-23T16:15:08.199Z,6.30
2022-10-23T16:17:34.693Z,4.55
2022-10-23T16:20:01.127Z,4.18
2022-10-23T16:22:27.774Z,3.80
2022-10-23T16:24:54.336Z,4.47
2022-10-23T16:27:20.779Z,4.35
2022-10-23T16:29:47.297Z,3.78
2022-10-23T16:32:13.636Z,16.60
2022-10-23T16:34:40.155Z,10.98
2022-10-23T16:37:06.758Z,10.75
2022-10-23T16:39:33.122Z,9.60
2022-10-23T16:41:59.442Z,7.22
2022-10-23T16:44:25.956Z,4.93
2022-10-23T16:46:52.493Z,5.53
2022-10-23T16:49:20.006Z,5.00
2022-10-23T16:51:46.501Z,4.55
2022-10-23T16:54:14.556Z,7.57
2022-10-23T16:56:41.019Z,4.63
2022-10-23T16:59:07.400Z,4.07
2022-10-23T17:01:33.930Z,3.95
2022-10-23T17:04:00.402Z,4.57
2022-10-23T17:06:29.562Z,4.35
2022-10-23T17:08:56.792Z,6.07
2022-10-23T17:11:32.159Z,5.50
2022-10-23T17:14:01.767Z,4.80
2022-10-23T17:16:34.885Z,5.40
2022-10-23T17:19:03.132Z,5.75
2022-10-23T17:21:36.088Z,5.63
2022-10-23T17:26:34.455Z,3.47
2022-10-23T17:29:02.360Z,4.28
2022-10-23T17:31:31.843Z,4.38
2022-10-23T17:34:06.342Z,4.07
2022-10-23T17:36:36.993Z,4.78
2022-10-23T17:39:07.463Z,4.88
2022-10-23T17:41:34.768Z,4.55
2022-10-23T17:44:01.285Z,4.97
2022-10-23T17:46:29.177Z,4.38
2022-10-23T17:49:00.248Z,4.32
2022-10-23T17:51:28.829Z,3.60
2022-10-23T17:53:57.352Z,3.75
2022-10-23T17:56:26.614Z,3.97
2022-10-23T17:58:55.720Z,3.60
2022-10-23T18:01:25.905Z,4.43
2022-10-23T18:03:55.251Z,5.85
2022-10-23T18:06:28.786Z,4.40
2022-10-23T18:08:58.438Z,5.50
2022-10-23T18:11:28.296Z,4.40
2022-10-23T18:13:57.400Z,5.80
2022-10-23T18:16:23.917Z,6.18
2022-10-23T18:18:53.506Z,4.95
2022-10-23T18:21:22.650Z,4.22
2022-10-23T18:23:49.760Z,4.43
2022-10-23T18:26:22.108Z,3.45
2022-10-23T18:28:50.827Z,3.92
2022-10-23T18:31:18.227Z,4.38
2022-10-23T18:33:45.888Z,5.40
2022-10-23T18:36:26.621Z,5.22
2022-10-23T18:38:53.147Z,5.95
2022-10-23T18:41:20.248Z,4.88
2022-10-23T18:43:46.676Z,4.13
2022-10-23T18:46:14.257Z,3.17
2022-10-23T18:48:42.296Z,3.30
2022-10-23T18:51:20.726Z,3.13
2022-10-23T18:53:47.707Z,2.97
2022-10-23T18:56:16.312Z,3.17
2022-10-23T18:58:42.718Z,2.80
2022-10-23T19:01:09.254Z,3.35
2022-10-23T19:03:36.728Z,3.50
2022-10-23T19:06:06.842Z,2.75
2022-10-23T19:08:37.261Z,2.92
2022-10-23T19:11:06.485Z,2.80
2022-10-23T19:13:38.913Z,2.63
2022-10-23T19:16:15.675Z,2.58
2022-10-23T19:18:50.098Z,3.30
2022-10-23T19:21:20.566Z,3.35
2022-10-23T19:23:48.922Z,3.08
2022-10-23T19:26:16.015Z,2.88
2022-10-23T19:28:45.769Z,3.58
2022-10-23T19:31:12.844Z,2.70
2022-10-23T19:33:39.529Z,2.85
2022-10-23T19:36:11.080Z,2.83
2022-10-23T19:38:40.711Z,2.85
2022-10-23T19:41:07.491Z,2.85
2022-10-23T19:43:34.137Z,3.10
2022-10-23T19:46:04.963Z,2.80
2022-10-23T19:48:34.394Z,3.05
2022-10-23T19:51:01.004Z,2.78
2022-10-23T19:53:27.348Z,2.78
2022-10-23T19:56:05.382Z,2.63
2022-10-23T19:58:32.047Z,3.30
2022-10-23T20:00:58.550Z,2.72
2022-10-23T20:03:24.952Z,3.17
2022-10-23T20:05:51.415Z,2.70
2022-10-23T20:08:18.027Z,3.03
2022-10-23T20:10:46.461Z,2.72
2022-10-23T20:13:19.995Z,2.85
2022-10-23T20:15:47.865Z,2.88
2022-10-23T20:18:15.354Z,2.40
2022-10-23T20:20:42.395Z,2.65
2022-10-23T20:23:09.239Z,2.90
2022-10-23T20:25:35.770Z,2.38
2022-10-23T20:28:02.349Z,2.50
2022-10-23T20:30:28.867Z,2.38
2022-10-23T20:32:56.033Z,2.33
2022-10-23T20:35:22.362Z,2.28
2022-10-23T20:37:48.698Z,2.90
2022-10-23T20:40:15.195Z,3.00
2022-10-23T20:42:41.640Z,2.58
2022-10-23T20:45:08.520Z,2.75
2022-10-23T20:47:34.859Z,2.28
2022-10-23T20:50:01.240Z,2.05
2022-10-23T20:52:29.971Z,2.45
2022-10-23T20:54:56.470Z,2.67
2022-10-23T20:57:22.833Z,2.55
2022-10-23T20:59:49.223Z,2.88
2022-10-23T21:02:15.681Z,2.72
2022-10-23T21:04:42.190Z,2.42
2022-10-23T21:07:10.329Z,2.17
2022-10-23T21:09:38.432Z,2.97
2022-10-23T21:12:06.349Z,2.58
2022-10-23T21:14:32.834Z,2.33
2022-10-23T21:16:59.307Z,2.50
2022-10-23T21:19:25.742Z,3.15
2022-10-23T21:21:52.489Z,2.80
2022-10-23T21:24:18.898Z,2.88
2022-10-23T21:26:45.776Z,2.65
2022-10-23T21:29:20.838Z,2.75
2022-10-23T21:31:58.613Z,2.63
2022-10-23T21:34:26.186Z,2.60
2022-10-23T21:37:13.511Z,2.65
2022-10-23T21:39:39.219Z,2.60
2022-10-23T21:42:05.890Z,2.30
2022-10-23T21:44:32.370Z,2.70
2022-10-23T21:46:58.746Z,2.90
2022-10-23T21:49:25.083Z,2.78
2022-10-23T21:51:51.582Z,2.65
2022-10-23T21:54:17.920Z,2.63
2022-10-23T21:56:47.711Z,2.60
2022-10-23T21:59:16.733Z,2.88
2022-10-23T22:01:46.197Z,2.75
2022-10-23T22:04:14.761Z,2.45
2022-10-23T22:06:42.052Z,2.50
2022-10-23T22:09:11.321Z,2.58
2022-10-23T22:11:37.950Z,2.90
2022-10-23T22:14:04.340Z,2.35
2022-10-23T22:16:30.819Z,2.03
2022-10-23T22:18:57.295Z,2.47
2022-10-23T22:21:26.519Z,2.20
2022-10-23T22:23:57.492Z,2.47
2022-10-23T22:26:30.070Z,2.50
2022-10-23T22:28:59.520Z,2.67
2022-10-23T22:31:30.643Z,2.28
2022-10-23T22:33:57.982Z,2.65
2022-10-23T22:36:25.521Z,2.63
2022-10-23T22:38:52.464Z,2.60
2022-10-23T22:41:19.004Z,2.85
2022-10-23T22:43:45.383Z,3.45
2022-10-23T22:46:18.927Z,2.67
2022-10-23T22:48:45.829Z,2.70
2022-10-23T22:51:15.314Z,3.05
2022-10-23T22:53:42.829Z,2.95
2022-10-23T22:56:15.304Z,2.78
2022-10-23T22:58:41.675Z,3.17
2022-10-23T23:01:17.058Z,3.17
2022-10-23T23:03:44.077Z,3.00
2022-10-23T23:06:11.369Z,2.78
2022-10-23T23:08:39.466Z,2.67
2022-10-23T23:11:07.846Z,2.75
2022-10-23T23:13:34.643Z,2.75
2022-10-23T23:16:02.027Z,2.90
2022-10-23T23:18:29.259Z,2.88
2022-10-23T23:21:00.679Z,3.20
2022-10-23T23:23:27.044Z,2.42
2022-10-23T23:25:53.388Z,2.65
2022-10-23T23:28:20.953Z,2.95
2022-10-23T23:30:48.374Z,2.60
2022-10-23T23:33:16.581Z,2.58
2022-10-23T23:35:44.978Z,2.70
2022-10-23T23:38:12.685Z,2.85
2022-10-23T23:40:40.266Z,2.72
2022-10-23T23:43:06.942Z,2.90
2022-10-23T23:45:33.427Z,2.17
2022-10-23T23:47:59.767Z,2.72
2022-10-23T23:50:27.850Z,2.70
2022-10-23T23:52:54.322Z,2.88
2022-10-23T23:55:20.692Z,3.05
2022-10-23T23:57:47.261Z,2.97
